KOFK/OFK METAR and TAF weather

Enter ICAO airport designator
Station Type Date Time Source
KOFK METAR 2019/04/19 09:56 UTC NOAA

KOFK 190956Z AUTO 30006KT 10SM CLR 02/M01 A3008 RMK AO2 SLP195 T00221006


Station Type Date Time Source
KOFK Decoded METAR 2019/04/19 09:56 UTC NOAA

KARL STEFAN MEMORIAL AIRPORT, NE, United States (KOFK) 41-59N 097-26W 470M
Apr 19, 2019 - 05:56 AM EDT / 2019.04.19 0956 UTC
Wind: from the WNW (300 degrees) at 7 MPH (6 KT):0
Visibility: 10 mile(s):0
Sky conditions: clear
Temperature: 36.0 F (2.2 C)
Dew Point: 30.9 F (-0.6 C)
Relative Humidity: 81%
Pressure (altimeter): 30.08 in. Hg (1018 hPa)
ob: KOFK 190956Z AUTO 30006KT 10SM CLR 02/M01 A3008 RMK AO2 SLP195 T00221006
cycle: 10

Station Type Date Time Source
KOFK TAF 2019/04/19 06:22 UTC NOAA

TAF KOFK 190520Z 1906/2006 31007KT P6SM SKC
FM200100 17006KT P6SM SKC

Example: see airport list